Time;durP1;ratioP1;P1;durP2;ratioP2;P2;SDS_P1;SDS_P2;PMS_P1;PMS_P2;Temp;Humidity;BMP_temperature;BMP_pressure;BME280_temperature;BME280_humidity;BME280_pressure;Samples;Min_cycle;Max_cycle;Signal;HPM_P1;HPM_P2
2021/08/27 00:02:15;;;;;;;9.68;1.83;;;;;;;;;;4993220;28;20057;-91
2021/08/27 00:04:45;;;;;;;6.20;1.70;;;;;;;;;;5005546;28;20058;-91
2021/08/27 00:07:15;;;;;;;7.85;1.95;;;;;;;;;;4997669;28;20053;-90
2021/08/27 00:09:42;;;;;;;6.03;1.70;;;;;;;;;;4997283;28;20088;-92
2021/08/27 00:12:09;;;;;;;12.32;2.20;;;;;;;;;;4997163;28;20423;-92
2021/08/27 00:14:37;;;;;;;8.95;1.98;;;;;;;;;;4996545;28;20073;-92
2021/08/27 00:17:05;;;;;;;5.88;1.90;;;;;;;;;;4995871;28;20038;-92
2021/08/27 00:19:35;;;;;;;7.65;2.45;;;;;;;;;;4998525;28;20080;-93
2021/08/27 00:22:02;;;;;;;10.75;3.13;;;;;;;;;;4997551;28;20050;-92
2021/08/27 00:24:30;;;;;;;12.55;2.83;;;;;;;;;;4997537;28;20057;-92
2021/08/27 00:26:57;;;;;;;13.23;2.53;;;;;;;;;;5014676;28;20083;-92
2021/08/27 00:29:25;;;;;;;14.07;3.20;;;;;;;;;;5001317;28;20058;-92
2021/08/27 00:31:59;;;;;;;11.13;2.60;;;;;;;;;;4995148;28;20053;-93
2021/08/27 00:34:27;;;;;;;11.38;2.80;;;;;;;;;;4995847;28;20066;-91
2021/08/27 00:37:04;;;;;;;10.43;2.97;;;;;;;;;;4987579;28;20403;-92
2021/08/27 00:39:32;;;;;;;14.00;3.33;;;;;;;;;;4997999;28;20128;-91
2021/08/27 00:41:59;;;;;;;13.57;3.20;;;;;;;;;;4996990;28;20058;-93
2021/08/27 00:44:27;;;;;;;14.77;3.00;;;;;;;;;;4998006;28;20072;-92
2021/08/27 00:46:54;;;;;;;15.48;2.90;;;;;;;;;;4998233;28;20136;-93
2021/08/27 00:49:23;;;;;;;12.63;2.72;;;;;;;;;;5014007;28;20050;-91
2021/08/27 00:51:51;;;;;;;7.28;2.55;;;;;;;;;;4996137;28;20077;-92
2021/08/27 00:54:20;;;;;;;10.32;2.42;;;;;;;;;;4996712;28;20050;-93
2021/08/27 00:56:51;;;;;;;8.55;2.40;;;;;;;;;;4996125;28;20057;-93
2021/08/27 00:59:19;;;;;;;12.77;2.25;;;;;;;;;;4996990;28;20077;-93
2021/08/27 01:01:46;;;;;;;6.88;2.00;;;;;;;;;;4996740;28;20050;-92
2021/08/27 01:04:14;;;;;;;7.32;2.35;;;;;;;;;;5014092;28;20054;-92
2021/08/27 01:06:54;;;;;;;10.77;2.10;;;;;;;;;;5012086;28;20100;-92
2021/08/27 01:09:35;;;;;;;8.60;2.10;;;;;;;;;;4995792;28;20513;-91
2021/08/27 01:12:08;;;;;;;9.48;2.65;;;;;;;;;;4996267;28;20085;-92
2021/08/27 01:14:39;;;;;;;11.98;2.20;;;;;;;;;;4995105;28;20445;-92
2021/08/27 01:17:10;;;;;;;9.20;2.00;;;;;;;;;;4996945;28;20813;-92
2021/08/27 01:19:56;;;;;;;14.70;2.38;;;;;;;;;;4996315;28;20132;-92
2021/08/27 01:22:52;;;;;;;16.45;2.30;;;;;;;;;;4996004;28;20092;-92
2021/08/27 01:25:21;;;;;;;12.13;1.88;;;;;;;;;;5013499;28;20065;-92
2021/08/27 01:27:53;;;;;;;18.52;2.35;;;;;;;;;;5006792;28;20046;-91
2021/08/27 01:30:39;;;;;;;9.07;2.10;;;;;;;;;;5012328;28;20145;-92
2021/08/27 01:33:10;;;;;;;5.13;1.95;;;;;;;;;;4997316;28;20097;-92
2021/08/27 01:35:38;;;;;;;12.00;1.83;;;;;;;;;;4996346;28;20049;-91
2021/08/27 01:38:08;;;;;;;12.25;2.25;;;;;;;;;;5012113;28;20458;-91
2021/08/27 01:40:41;;;;;;;16.73;1.98;;;;;;;;;;4995569;28;20073;-91
2021/08/27 01:43:10;;;;;;;22.98;2.05;;;;;;;;;;4994000;28;20490;-89
2021/08/27 01:45:39;;;;;;;14.82;1.98;;;;;;;;;;5011876;28;20113;-90
2021/08/27 01:48:09;;;;;;;13.95;2.70;;;;;;;;;;4993676;28;20085;-89
2021/08/27 01:50:36;;;;;;;12.18;1.85;;;;;;;;;;4975562;28;20137;-90
2021/08/27 01:53:05;;;;;;;11.85;2.60;;;;;;;;;;4992589;28;20964;-89
2021/08/27 01:55:33;;;;;;;14.57;2.38;;;;;;;;;;4993058;28;20061;-90
2021/08/27 01:58:04;;;;;;;9.73;2.50;;;;;;;;;;4987608;28;20083;-89
2021/08/27 02:00:32;;;;;;;12.35;2.50;;;;;;;;;;5012621;28;20045;-90
2021/08/27 02:03:00;;;;;;;8.75;1.83;;;;;;;;;;5002462;28;20407;-89
2021/08/27 02:05:29;;;;;;;9.85;1.92;;;;;;;;;;4987616;28;20080;-88
2021/08/27 02:07:58;;;;;;;8.52;1.02;;;;;;;;;;4994534;28;20107;-89
2021/08/27 02:10:27;;;;;;;4.43;0.90;;;;;;;;;;4994784;28;20056;-89
2021/08/27 02:12:56;;;;;;;2.83;0.80;;;;;;;;;;5010908;28;20065;-89
2021/08/27 02:15:24;;;;;;;27.38;4.72;;;;;;;;;;4992908;28;20058;-88
2021/08/27 02:17:53;;;;;;;15.27;6.28;;;;;;;;;;5007738;28;20062;-87
2021/08/27 02:20:20;;;;;;;9.45;3.33;;;;;;;;;;4988713;28;20474;-87
2021/08/27 02:22:51;;;;;;;2.17;1.20;;;;;;;;;;5009297;28;20123;-88
2021/08/27 02:25:23;;;;;;;11.65;1.23;;;;;;;;;;4992878;28;20061;-89
2021/08/27 02:27:50;;;;;;;6.07;0.90;;;;;;;;;;5001387;28;20100;-89
2021/08/27 02:30:19;;;;;;;4.18;1.00;;;;;;;;;;5006792;28;20648;-89
2021/08/27 02:32:48;;;;;;;4.03;0.98;;;;;;;;;;4981476;28;20061;-89
2021/08/27 02:35:17;;;;;;;1.73;0.90;;;;;;;;;;4979548;28;20570;-89
2021/08/27 02:37:47;;;;;;;2.90;1.27;;;;;;;;;;4993840;28;20050;-90
2021/08/27 02:40:15;;;;;;;4.93;1.30;;;;;;;;;;4997164;28;20054;-91
2021/08/27 02:42:43;;;;;;;1.38;0.80;;;;;;;;;;4997702;28;20050;-90
2021/08/27 02:45:22;;;;;;;1.83;0.73;;;;;;;;;;5016258;28;20054;-90
2021/08/27 02:47:50;;;;;;;1.70;0.50;;;;;;;;;;4999929;28;20054;-90
2021/08/27 02:50:18;;;;;;;0.68;0.40;;;;;;;;;;4999360;28;20085;-90
2021/08/27 02:52:53;;;;;;;4.85;0.70;;;;;;;;;;5016585;28;20128;-91
2021/08/27 02:55:27;;;;;;;1.42;0.60;;;;;;;;;;4999750;28;20046;-90
2021/08/27 02:57:55;;;;;;;1.75;0.57;;;;;;;;;;4999833;28;20057;-89
2021/08/27 03:00:29;;;;;;;1.58;0.65;;;;;;;;;;4997970;28;20114;-89
2021/08/27 03:02:56;;;;;;;6.38;0.75;;;;;;;;;;5015342;28;20129;-89
2021/08/27 03:05:27;;;;;;;0.77;0.52;;;;;;;;;;4998668;28;20085;-90
2021/08/27 03:08:00;;;;;;;5.90;0.55;;;;;;;;;;5000462;28;20057;-91
2021/08/27 03:10:36;;;;;;;1.40;0.75;;;;;;;;;;5000064;28;20092;-91
2021/08/27 03:13:06;;;;;;;3.20;0.75;;;;;;;;;;5000007;28;20065;-91
2021/08/27 03:15:40;;;;;;;1.33;0.52;;;;;;;;;;4999598;28;20045;-90
2021/08/27 03:18:25;;;;;;;3.33;0.75;;;;;;;;;;4998137;28;20461;-89
2021/08/27 03:20:56;;;;;;;3.40;0.80;;;;;;;;;;4989791;28;20092;-91
2021/08/27 03:23:24;;;;;;;1.67;0.60;;;;;;;;;;4990554;28;20068;-90
2021/08/27 03:25:58;;;;;;;4.82;1.98;;;;;;;;;;4995728;28;20133;-90
2021/08/27 03:28:39;;;;;;;8.63;3.10;;;;;;;;;;4997751;28;20050;-91
2021/08/27 03:31:11;;;;;;;4.68;2.17;;;;;;;;;;4998250;28;20093;-91
2021/08/27 03:33:40;;;;;;;2.28;1.10;;;;;;;;;;4999523;28;20042;-89
2021/08/27 03:36:07;;;;;;;7.90;1.45;;;;;;;;;;4999785;28;20108;-86
2021/08/27 03:38:35;;;;;;;2.13;1.15;;;;;;;;;;4992654;28;20161;-78
2021/08/27 03:41:03;;;;;;;3.63;1.85;;;;;;;;;;4988905;28;20084;-78
2021/08/27 03:43:32;;;;;;;7.13;2.45;;;;;;;;;;4991401;28;20072;-78
2021/08/27 03:46:00;;;;;;;6.68;2.05;;;;;;;;;;5009190;28;20128;-78
2021/08/27 03:48:28;;;;;;;11.15;1.83;;;;;;;;;;4991431;28;20082;-78
2021/08/27 03:50:56;;;;;;;5.40;2.28;;;;;;;;;;4992209;28;20089;-78
2021/08/27 03:53:23;;;;;;;5.78;1.80;;;;;;;;;;5008116;28;20145;-78
2021/08/27 03:55:52;;;;;;;3.10;1.48;;;;;;;;;;4989203;28;20050;-78
2021/08/27 03:58:21;;;;;;;5.57;2.80;;;;;;;;;;4990024;28;20042;-78
2021/08/27 04:00:50;;;;;;;6.35;1.33;;;;;;;;;;4989471;28;20550;-79
2021/08/27 04:03:20;;;;;;;4.68;1.13;;;;;;;;;;4995741;28;20136;-79
2021/08/27 04:06:04;;;;;;;2.88;1.63;;;;;;;;;;4985997;28;20060;-79
2021/08/27 04:08:33;;;;;;;7.88;1.40;;;;;;;;;;4991288;28;20062;-79
2021/08/27 04:11:01;;;;;;;9.48;1.52;;;;;;;;;;4991720;28;20141;-79
2021/08/27 04:13:28;;;;;;;4.82;1.40;;;;;;;;;;4994406;28;20054;-81
2021/08/27 04:15:56;;;;;;;8.18;1.42;;;;;;;;;;4995439;28;20054;-81
2021/08/27 04:18:23;;;;;;;4.03;1.65;;;;;;;;;;5011474;28;20053;-81
2021/08/27 04:20:51;;;;;;;7.03;0.95;;;;;;;;;;4995625;28;20238;-82
2021/08/27 04:23:18;;;;;;;6.65;1.90;;;;;;;;;;5012556;28;20129;-82
2021/08/27 04:25:45;;;;;;;4.97;1.25;;;;;;;;;;4995618;28;20069;-82
2021/08/27 04:28:12;;;;;;;7.57;1.50;;;;;;;;;;4996474;28;20077;-81
2021/08/27 04:30:39;;;;;;;5.85;1.38;;;;;;;;;;4993355;28;20081;-80
2021/08/27 04:33:07;;;;;;;5.90;1.20;;;;;;;;;;4982645;28;20065;-81
2021/08/27 04:35:34;;;;;;;3.40;1.23;;;;;;;;;;4988066;28;20845;-81
2021/08/27 04:38:05;;;;;;;7.30;1.70;;;;;;;;;;5013015;28;20128;-82
2021/08/27 04:40:33;;;;;;;5.47;1.98;;;;;;;;;;4993678;28;20085;-80
2021/08/27 04:43:01;;;;;;;9.90;2.20;;;;;;;;;;4993563;28;20054;-80
2021/08/27 04:45:28;;;;;;;6.07;1.95;;;;;;;;;;4992716;28;20081;-80
2021/08/27 04:47:58;;;;;;;11.98;2.60;;;;;;;;;;4992859;28;20061;-80
2021/08/27 04:50:25;;;;;;;5.72;1.70;;;;;;;;;;4991836;28;20196;-80
2021/08/27 04:52:54;;;;;;;6.63;2.13;;;;;;;;;;5009128;28;20060;-80
2021/08/27 04:55:21;;;;;;;13.02;2.40;;;;;;;;;;5009566;28;20750;-80
2021/08/27 04:57:49;;;;;;;13.30;2.60;;;;;;;;;;4994467;28;20434;-80
2021/08/27 05:00:16;;;;;;;10.68;3.13;;;;;;;;;;4992480;28;20120;-80
2021/08/27 05:02:44;;;;;;;20.58;4.85;;;;;;;;;;4989851;28;20161;-80
2021/08/27 05:05:12;;;;;;;18.58;4.22;;;;;;;;;;4991625;28;20828;-79
2021/08/27 05:07:39;;;;;;;8.30;3.40;;;;;;;;;;4990886;28;20054;-79
2021/08/27 05:10:08;;;;;;;7.40;3.15;;;;;;;;;;4991984;28;20458;-80
2021/08/27 05:12:35;;;;;;;8.45;3.35;;;;;;;;;;4991397;28;20824;-79
2021/08/27 05:15:03;;;;;;;13.32;3.13;;;;;;;;;;5008617;28;20057;-79
2021/08/27 05:17:30;;;;;;;9.88;3.22;;;;;;;;;;4984798;28;20070;-79
2021/08/27 05:19:58;;;;;;;9.65;3.60;;;;;;;;;;4999786;28;20046;-78
2021/08/27 05:22:25;;;;;;;10.38;3.28;;;;;;;;;;4980180;28;20089;-78
2021/08/27 05:24:55;;;;;;;12.68;2.65;;;;;;;;;;5003643;28;20049;-78
2021/08/27 05:27:23;;;;;;;7.00;2.30;;;;;;;;;;5001573;28;20090;-77
2021/08/27 05:29:50;;;;;;;13.70;3.33;;;;;;;;;;5006536;28;20057;-78
2021/08/27 05:32:17;;;;;;;10.23;2.92;;;;;;;;;;4987623;28;20127;-77
2021/08/27 05:34:45;;;;;;;11.75;2.92;;;;;;;;;;5005128;28;20150;-76
2021/08/27 05:37:12;;;;;;;14.00;2.90;;;;;;;;;;5006369;28;20058;-77
2021/08/27 05:39:39;;;;;;;9.23;2.63;;;;;;;;;;4989121;28;20561;-78
2021/08/27 05:42:08;;;;;;;5.50;2.33;;;;;;;;;;4988757;28;20088;-78
2021/08/27 05:44:35;;;;;;;16.90;3.78;;;;;;;;;;4988969;28;20065;-78
2021/08/27 05:47:02;;;;;;;9.38;2.85;;;;;;;;;;4985382;28;20319;-77
2021/08/27 05:49:29;;;;;;;16.55;2.55;;;;;;;;;;4987965;28;20058;-76
2021/08/27 05:51:57;;;;;;;13.07;3.50;;;;;;;;;;5006269;28;20077;-76
2021/08/27 05:54:26;;;;;;;17.50;3.30;;;;;;;;;;4991327;28;20128;-76
2021/08/27 05:56:56;;;;;;;7.00;3.03;;;;;;;;;;4991314;28;20057;-76
2021/08/27 05:59:26;;;;;;;9.63;2.95;;;;;;;;;;5008783;28;20092;-76
2021/08/27 06:01:56;;;;;;;20.80;4.10;;;;;;;;;;4989848;28;20050;-76
2021/08/27 06:04:23;;;;;;;8.07;3.03;;;;;;;;;;4988784;28;20061;-76
2021/08/27 06:06:53;;;;;;;15.18;3.70;;;;;;;;;;4987892;28;20117;-77
2021/08/27 06:09:20;;;;;;;11.02;3.75;;;;;;;;;;4988012;28;20061;-76
2021/08/27 06:11:51;;;;;;;8.77;3.38;;;;;;;;;;5006057;28;20057;-76
2021/08/27 06:14:18;;;;;;;9.50;3.17;;;;;;;;;;5007824;28;20161;-76
2021/08/27 06:16:45;;;;;;;10.98;3.22;;;;;;;;;;5009395;28;20057;-77
2021/08/27 06:19:12;;;;;;;10.48;2.92;;;;;;;;;;5010126;28;20459;-77
2021/08/27 06:21:39;;;;;;;12.82;2.78;;;;;;;;;;4992092;28;20550;-77
2021/08/27 06:24:07;;;;;;;7.35;2.53;;;;;;;;;;4992400;28;20575;-76
2021/08/27 06:26:37;;;;;;;8.23;2.22;;;;;;;;;;4991812;28;20057;-77
2021/08/27 06:29:06;;;;;;;3.25;1.67;;;;;;;;;;4992006;28;20076;-76
2021/08/27 06:31:34;;;;;;;3.67;1.67;;;;;;;;;;4992882;28;20149;-77
2021/08/27 06:34:02;;;;;;;8.57;2.10;;;;;;;;;;4993048;28;20046;-77
2021/08/27 06:36:33;;;;;;;7.38;2.53;;;;;;;;;;4993379;28;20581;-78
2021/08/27 06:39:01;;;;;;;9.77;4.50;;;;;;;;;;4993099;28;20060;-77
2021/08/27 06:41:31;;;;;;;11.32;4.63;;;;;;;;;;4992753;28;20133;-77
2021/08/27 06:43:58;;;;;;;11.88;3.60;;;;;;;;;;4999487;28;20164;-79
2021/08/27 06:46:26;;;;;;;8.93;2.28;;;;;;;;;;4992480;28;20057;-78
2021/08/27 06:48:54;;;;;;;5.40;1.92;;;;;;;;;;4991379;28;20128;-79
2021/08/27 06:51:21;;;;;;;5.28;2.80;;;;;;;;;;4990056;28;20096;-79
2021/08/27 06:53:53;;;;;;;4.20;2.70;;;;;;;;;;4991297;28;20070;-79
2021/08/27 06:56:21;;;;;;;7.65;3.90;;;;;;;;;;4992155;28;20152;-80
2021/08/27 06:58:50;;;;;;;5.38;2.63;;;;;;;;;;4994555;28;20056;-80
2021/08/27 07:01:18;;;;;;;5.45;2.45;;;;;;;;;;4991836;28;20050;-78
2021/08/27 07:03:45;;;;;;;10.02;2.70;;;;;;;;;;5002534;28;21444;-80
2021/08/27 07:06:14;;;;;;;3.45;2.58;;;;;;;;;;5010696;28;20062;-80
2021/08/27 07:08:42;;;;;;;6.38;2.70;;;;;;;;;;4994282;28;20054;-78
2021/08/27 07:11:11;;;;;;;3.97;2.00;;;;;;;;;;4993263;28;20490;-78
2021/08/27 07:13:38;;;;;;;4.45;2.40;;;;;;;;;;4992675;28;20100;-80
2021/08/27 07:16:05;;;;;;;2.85;1.73;;;;;;;;;;4990050;28;20114;-79
2021/08/27 07:18:33;;;;;;;5.30;2.03;;;;;;;;;;5008699;28;20873;-78
2021/08/27 07:21:00;;;;;;;3.42;2.00;;;;;;;;;;4991262;28;20042;-79
2021/08/27 07:23:27;;;;;;;3.67;2.03;;;;;;;;;;4991784;28;20089;-78
2021/08/27 07:25:54;;;;;;;5.47;1.80;;;;;;;;;;5008418;28;20144;-78
2021/08/27 07:28:21;;;;;;;4.55;2.20;;;;;;;;;;4991798;28;20140;-78
2021/08/27 07:30:49;;;;;;;3.72;1.40;;;;;;;;;;5008944;28;20133;-77
2021/08/27 07:33:17;;;;;;;4.72;1.80;;;;;;;;;;4991323;28;20609;-77
2021/08/27 07:35:45;;;;;;;3.83;2.30;;;;;;;;;;4994051;28;20141;-78
2021/08/27 07:38:14;;;;;;;3.78;2.03;;;;;;;;;;4990063;28;20497;-78
2021/08/27 07:40:41;;;;;;;4.78;2.03;;;;;;;;;;4978929;28;20129;-77
2021/08/27 07:43:08;;;;;;;6.65;1.92;;;;;;;;;;4996873;28;20077;-78
2021/08/27 07:45:38;;;;;;;5.25;1.88;;;;;;;;;;4990697;28;20061;-78
2021/08/27 07:48:05;;;;;;;3.63;1.80;;;;;;;;;;4999938;28;20058;-78
2021/08/27 07:50:32;;;;;;;7.30;2.38;;;;;;;;;;5008531;28;20159;-78
2021/08/27 07:52:59;;;;;;;7.72;2.53;;;;;;;;;;5007665;28;20132;-78
2021/08/27 07:55:27;;;;;;;2.70;1.77;;;;;;;;;;5007938;28;20049;-78
2021/08/27 07:57:54;;;;;;;7.70;2.20;;;;;;;;;;5008487;28;20109;-78
2021/08/27 08:00:23;;;;;;;3.92;1.75;;;;;;;;;;5006728;28;20049;-78
2021/08/27 08:02:50;;;;;;;2.78;1.80;;;;;;;;;;4989558;28;20486;-77
2021/08/27 08:05:18;;;;;;;12.23;2.03;;;;;;;;;;5007272;28;20870;-79
2021/08/27 08:07:45;;;;;;;5.75;1.60;;;;;;;;;;4988153;28;20053;-80
2021/08/27 08:10:12;;;;;;;5.13;2.10;;;;;;;;;;4989910;28;20789;-79
2021/08/27 08:12:39;;;;;;;14.93;4.43;;;;;;;;;;5008397;28;20709;-79
2021/08/27 08:15:07;;;;;;;9.82;3.25;;;;;;;;;;5007928;28;20726;-79
2021/08/27 08:17:34;;;;;;;5.03;2.47;;;;;;;;;;4990367;28;20061;-80
2021/08/27 08:20:02;;;;;;;2.53;1.40;;;;;;;;;;4991737;28;20149;-80
2021/08/27 08:22:32;;;;;;;3.40;1.60;;;;;;;;;;4991061;28;20054;-79
2021/08/27 08:24:59;;;;;;;3.15;1.90;;;;;;;;;;4992126;28;20050;-80
2021/08/27 08:27:31;;;;;;;2.95;1.67;;;;;;;;;;4994888;28;20049;-80
2021/08/27 08:29:58;;;;;;;3.90;1.88;;;;;;;;;;4987889;28;20146;-80
2021/08/27 08:32:25;;;;;;;3.75;1.80;;;;;;;;;;4990005;28;20088;-81
2021/08/27 08:34:52;;;;;;;3.03;1.30;;;;;;;;;;5011888;28;20073;-82
2021/08/27 08:37:20;;;;;;;2.75;1.60;;;;;;;;;;5012519;28;20058;-81
2021/08/27 08:39:48;;;;;;;1.90;1.20;;;;;;;;;;4995606;28;20054;-81
2021/08/27 08:42:16;;;;;;;1.65;0.93;;;;;;;;;;5013123;28;20062;-82
2021/08/27 08:44:43;;;;;;;1.15;0.95;;;;;;;;;;4991347;28;20156;-80
2021/08/27 08:47:11;;;;;;;1.73;0.95;;;;;;;;;;4992372;28;20599;-79
2021/08/27 08:49:39;;;;;;;1.27;0.82;;;;;;;;;;4990628;28;20054;-79
2021/08/27 08:52:08;;;;;;;1.35;0.80;;;;;;;;;;4991268;28;20050;-79
2021/08/27 08:54:36;;;;;;;6.82;1.52;;;;;;;;;;4990138;28;20479;-80
2021/08/27 08:57:06;;;;;;;0.95;0.80;;;;;;;;;;4992628;28;20129;-80
2021/08/27 08:59:38;;;;;;;0.85;0.65;;;;;;;;;;4983285;28;20057;-79
2021/08/27 09:02:09;;;;;;;1.05;0.93;;;;;;;;;;5001629;28;20046;-79
2021/08/27 09:04:37;;;;;;;4.15;0.80;;;;;;;;;;4992024;28;20129;-79
2021/08/27 09:07:05;;;;;;;9.23;4.15;;;;;;;;;;4990427;28;20133;-78
2021/08/27 09:09:34;;;;;;;2.60;1.10;;;;;;;;;;5010610;28;20709;-79
2021/08/27 09:12:15;;;;;;;1.02;0.70;;;;;;;;;;4990385;28;20126;-79
2021/08/27 09:14:43;;;;;;;2.83;1.70;;;;;;;;;;4990138;28;20046;-80
2021/08/27 09:17:10;;;;;;;1.70;0.90;;;;;;;;;;5008460;28;20124;-80
2021/08/27 09:19:51;;;;;;;3.50;0.65;;;;;;;;;;5007253;28;20135;-79
2021/08/27 09:22:18;;;;;;;3.20;0.60;;;;;;;;;;5006375;28;20152;-79
2021/08/27 09:25:03;;;;;;;1.45;0.73;;;;;;;;;;4988620;28;20046;-80
2021/08/27 09:27:32;;;;;;;1.42;0.55;;;;;;;;;;4991668;28;20564;-80
2021/08/27 09:29:59;;;;;;;6.38;0.50;;;;;;;;;;4990802;28;20052;-80
2021/08/27 09:32:28;;;;;;;1.60;0.40;;;;;;;;;;4979330;28;20054;-80
2021/08/27 09:34:59;;;;;;;0.50;0.50;;;;;;;;;;4986281;28;20057;-80
2021/08/27 09:37:59;;;;;;;2.10;0.57;;;;;;;;;;4990171;28;20041;-80
2021/08/27 09:40:27;;;;;;;3.30;0.60;;;;;;;;;;4960229;28;20089;-80
2021/08/27 09:42:55;;;;;;;1.50;0.65;;;;;;;;;;4989414;28;20050;-79
2021/08/27 09:45:34;;;;;;;1.35;0.50;;;;;;;;;;4987289;28;20152;-80
2021/08/27 09:48:07;;;;;;;0.85;0.55;;;;;;;;;;4989978;28;20196;-80
2021/08/27 09:50:35;;;;;;;1.08;0.60;;;;;;;;;;5008632;28;20053;-80
2021/08/27 09:53:03;;;;;;;1.75;0.60;;;;;;;;;;4991194;28;20084;-80
2021/08/27 09:55:31;;;;;;;2.75;0.68;;;;;;;;;;4989564;28;20073;-80
2021/08/27 09:58:11;;;;;;;2.72;0.50;;;;;;;;;;4991108;28;20161;-81
2021/08/27 10:00:40;;;;;;;2.28;0.40;;;;;;;;;;4984538;28;20559;-80
2021/08/27 10:03:18;;;;;;;1.10;0.65;;;;;;;;;;4990936;28;20084;-80
2021/08/27 10:05:48;;;;;;;7.93;2.13;;;;;;;;;;5009889;28;20061;-80
2021/08/27 10:08:17;;;;;;;1.35;0.50;;;;;;;;;;4992437;28;20538;-83
2021/08/27 10:10:44;;;;;;;6.03;0.80;;;;;;;;;;4992304;28;20142;-82
2021/08/27 10:13:12;;;;;;;0.60;0.50;;;;;;;;;;4992880;28;20373;-84
2021/08/27 10:15:40;;;;;;;0.75;0.30;;;;;;;;;;5009878;28;20545;-82
2021/08/27 10:18:09;;;;;;;0.75;0.40;;;;;;;;;;4991117;28;20490;-82
2021/08/27 10:20:38;;;;;;;1.75;0.38;;;;;;;;;;4991892;28;20089;-83
2021/08/27 10:23:10;;;;;;;0.60;0.50;;;;;;;;;;5007742;28;20112;-81
2021/08/27 10:25:38;;;;;;;1.98;0.50;;;;;;;;;;4992140;28;20562;-82
2021/08/27 10:28:06;;;;;;;5.22;0.52;;;;;;;;;;5006673;28;20098;-79
2021/08/27 10:30:48;;;;;;;4.28;0.60;;;;;;;;;;5007089;28;20120;-79
2021/08/27 10:33:37;;;;;;;6.32;0.40;;;;;;;;;;4989401;28;20064;-80
2021/08/27 10:36:05;;;;;;;1.95;0.57;;;;;;;;;;4992294;28;20125;-82
2021/08/27 10:38:39;;;;;;;1.17;0.50;;;;;;;;;;5011099;28;20041;-82
2021/08/27 10:41:15;;;;;;;1.17;0.40;;;;;;;;;;5009566;28;20129;-83
2021/08/27 10:43:57;;;;;;;3.65;0.30;;;;;;;;;;5006640;28;20133;-80
2021/08/27 10:46:44;;;;;;;1.38;0.40;;;;;;;;;;5007334;28;20054;-82
2021/08/27 10:49:40;;;;;;;0.98;0.30;;;;;;;;;;5005291;28;20591;-82
2021/08/27 10:52:07;;;;;;;;;;;;;;;;;;4990779;28;20054;-82
2021/08/27 10:54:54;;;;;;;5.03;0.50;;;;;;;;;;4989067;28;19968;-80
2021/08/27 10:57:21;;;;;;;0.50;0.35;;;;;;;;;;5000576;28;20504;-82
2021/08/27 10:59:58;;;;;;;1.58;0.43;;;;;;;;;;5001543;28;20108;-81
2021/08/27 11:02:28;;;;;;;1.40;0.30;;;;;;;;;;5004691;28;20054;-81
2021/08/27 11:04:56;;;;;;;0.43;0.20;;;;;;;;;;5010213;28;20618;-83
2021/08/27 11:07:27;;;;;;;2.88;0.38;;;;;;;;;;5012333;28;20050;-82
2021/08/27 11:10:02;;;;;;;0.40;0.40;;;;;;;;;;4991372;28;20512;-79
2021/08/27 11:12:42;;;;;;;0.75;0.30;;;;;;;;;;5007022;28;20053;-81
2021/08/27 11:15:26;;;;;;;2.33;0.40;;;;;;;;;;5012681;28;20085;-82
2021/08/27 11:18:16;;;;;;;1.15;0.35;;;;;;;;;;5013091;28;20085;-81
2021/08/27 11:20:48;;;;;;;0.22;0.22;;;;;;;;;;5010839;28;20105;-80
2021/08/27 11:23:22;;;;;;;5.20;0.57;;;;;;;;;;4995249;28;20773;-82
2021/08/27 11:26:00;;;;;;;0.30;0.30;;;;;;;;;;4994610;28;20081;-82
2021/08/27 11:28:29;;;;;;;2.33;0.63;;;;;;;;;;5011135;28;20061;-82
2021/08/27 11:31:04;;;;;;;1.55;0.55;;;;;;;;;;5004764;28;20149;-83
2021/08/27 11:33:44;;;;;;;0.30;0.20;;;;;;;;;;4995661;28;20499;-84
2021/08/27 11:36:13;;;;;;;0.28;0.20;;;;;;;;;;4995934;28;20050;-83
2021/08/27 11:38:44;;;;;;;1.17;0.30;;;;;;;;;;4996074;28;20045;-83
2021/08/27 11:41:12;;;;;;;1.80;0.30;;;;;;;;;;4992699;28;20111;-84
2021/08/27 11:43:47;;;;;;;1.33;0.47;;;;;;;;;;4991726;28;20050;-84
2021/08/27 11:46:18;;;;;;;2.90;0.50;;;;;;;;;;4995456;28;20056;-82
2021/08/27 11:48:57;;;;;;;1.92;0.35;;;;;;;;;;5005437;28;20137;-81
2021/08/27 11:51:29;;;;;;;0.50;0.30;;;;;;;;;;4985008;28;20105;-81
2021/08/27 11:53:57;;;;;;;0.70;0.20;;;;;;;;;;4984815;28;20839;-80
2021/08/27 11:56:24;;;;;;;0.50;0.30;;;;;;;;;;5011940;28;20477;-82
2021/08/27 11:58:52;;;;;;;0.60;0.35;;;;;;;;;;4993546;28;20900;-86
2021/08/27 12:01:31;;;;;;;0.20;0.20;;;;;;;;;;4989302;28;20137;-83
2021/08/27 12:03:59;;;;;;;2.25;0.22;;;;;;;;;;5010951;28;20046;-79
2021/08/27 12:06:27;;;;;;;0.35;0.20;;;;;;;;;;4992037;28;20555;-80
2021/08/27 12:08:54;;;;;;;1.58;0.20;;;;;;;;;;4993148;28;20054;-81
2021/08/27 12:11:33;;;;;;;0.65;0.20;;;;;;;;;;5011077;28;20141;-83
2021/08/27 12:14:01;;;;;;;0.20;0.20;;;;;;;;;;4994920;28;20145;-85
2021/08/27 12:16:30;;;;;;;0.82;0.35;;;;;;;;;;5008156;28;20046;-79
2021/08/27 12:19:18;;;;;;;4.40;0.43;;;;;;;;;;4992798;28;20082;-79
2021/08/27 12:21:45;;;;;;;1.27;0.32;;;;;;;;;;4984554;28;20049;-80
2021/08/27 12:24:12;;;;;;;0.30;0.17;;;;;;;;;;4999451;28;20085;-80
2021/08/27 12:26:40;;;;;;;0.10;0.10;;;;;;;;;;5016669;28;20133;-79
2021/08/27 12:29:17;;;;;;;2.58;0.40;;;;;;;;;;4995439;28;20123;-80
2021/08/27 12:31:47;;;;;;;0.30;0.30;;;;;;;;;;4999712;28;20581;-80
2021/08/27 12:34:19;;;;;;;4.55;1.15;;;;;;;;;;4984486;28;20395;-80
2021/08/27 12:36:47;;;;;;;1.35;0.52;;;;;;;;;;4987133;28;20108;-81
2021/08/27 12:39:15;;;;;;;1.25;0.20;;;;;;;;;;5008243;28;20133;-82
2021/08/27 12:41:43;;;;;;;0.65;0.10;;;;;;;;;;4975322;28;20085;-82
2021/08/27 12:44:11;;;;;;;1.48;0.30;;;;;;;;;;4974299;28;20133;-81
2021/08/27 12:46:45;;;;;;;0.28;0.25;;;;;;;;;;5001459;28;20114;-80
2021/08/27 12:49:20;;;;;;;3.90;0.30;;;;;;;;;;5011479;28;20475;-81
2021/08/27 12:51:48;;;;;;;;;;;;;;;;;;5011909;28;20131;-81
2021/08/27 12:54:17;;;;;;;2.25;0.20;;;;;;;;;;5010058;28;20012;-80
2021/08/27 12:57:01;;;;;;;3.83;0.82;;;;;;;;;;5008150;28;20096;-80
2021/08/27 12:59:28;;;;;;;0.20;0.20;;;;;;;;;;4992381;28;20057;-80
2021/08/27 13:01:59;;;;;;;0.30;0.20;;;;;;;;;;4984024;28;20042;-80
2021/08/27 13:04:41;;;;;;;2.35;0.30;;;;;;;;;;5010012;28;20073;-80
2021/08/27 13:07:22;;;;;;;1.08;0.35;;;;;;;;;;4992005;28;20053;-80
2021/08/27 13:10:06;;;;;;;0.75;0.32;;;;;;;;;;4992365;28;20053;-80
2021/08/27 13:12:35;;;;;;;3.05;0.50;;;;;;;;;;4991729;28;20049;-80
2021/08/27 13:15:03;;;;;;;0.20;0.20;;;;;;;;;;5006140;28;20687;-80
2021/08/27 13:17:30;;;;;;;0.60;0.32;;;;;;;;;;4992234;28;20042;-80
2021/08/27 13:19:59;;;;;;;0.22;0.22;;;;;;;;;;4991793;28;20064;-80
2021/08/27 13:22:29;;;;;;;0.60;0.60;;;;;;;;;;4990581;28;20140;-80
2021/08/27 13:24:58;;;;;;;0.65;0.40;;;;;;;;;;5010073;28;20133;-80
2021/08/27 13:27:26;;;;;;;1.10;0.40;;;;;;;;;;5004432;28;20109;-79
2021/08/27 13:29:56;;;;;;;2.35;0.35;;;;;;;;;;4991100;28;20049;-79
2021/08/27 13:32:27;;;;;;;4.25;0.40;;;;;;;;;;4986012;28;20220;-80
2021/08/27 13:34:57;;;;;;;0.65;0.50;;;;;;;;;;4993158;28;20117;-81
2021/08/27 13:37:27;;;;;;;2.88;0.30;;;;;;;;;;4992671;28;20483;-81
2021/08/27 13:39:55;;;;;;;1.42;0.57;;;;;;;;;;5010082;28;20848;-80
2021/08/27 13:42:23;;;;;;;0.20;0.20;;;;;;;;;;4993109;28;20641;-80
2021/08/27 13:44:52;;;;;;;5.30;0.73;;;;;;;;;;4982515;28;20054;-79
2021/08/27 13:47:20;;;;;;;5.93;0.70;;;;;;;;;;4988744;28;20058;-79
2021/08/27 13:49:48;;;;;;;0.50;0.50;;;;;;;;;;4972461;28;20054;-79
2021/08/27 13:52:16;;;;;;;0.38;0.38;;;;;;;;;;4987831;28;20112;-79
2021/08/27 13:54:45;;;;;;;0.77;0.40;;;;;;;;;;4992340;28;20054;-79
2021/08/27 13:57:12;;;;;;;2.53;0.50;;;;;;;;;;5009991;28;20676;-80
2021/08/27 13:59:39;;;;;;;0.45;0.40;;;;;;;;;;4992304;28;20052;-80
2021/08/27 14:02:11;;;;;;;1.40;0.60;;;;;;;;;;4999405;28;20125;-79
2021/08/27 14:04:40;;;;;;;0.70;0.50;;;;;;;;;;4991294;28;20112;-80
2021/08/27 14:07:07;;;;;;;3.90;0.73;;;;;;;;;;4974020;28;20058;-80
2021/08/27 14:09:34;;;;;;;4.22;0.50;;;;;;;;;;4990368;28;20108;-80
2021/08/27 14:12:02;;;;;;;2.72;0.55;;;;;;;;;;4991738;28;20049;-80
2021/08/27 14:14:29;;;;;;;5.43;0.50;;;;;;;;;;5007949;28;20125;-80
2021/08/27 14:16:57;;;;;;;0.52;0.40;;;;;;;;;;5009247;28;20046;-80
2021/08/27 14:19:24;;;;;;;2.17;0.40;;;;;;;;;;5008678;28;20082;-79
2021/08/27 14:21:52;;;;;;;1.38;0.45;;;;;;;;;;4991964;28;20083;-80
2021/08/27 14:24:19;;;;;;;1.92;0.60;;;;;;;;;;5008911;28;20124;-80
2021/08/27 14:26:47;;;;;;;0.30;0.20;;;;;;;;;;4990953;28;20077;-80
2021/08/27 14:29:15;;;;;;;4.97;3.88;;;;;;;;;;4991961;28;20057;-79
2021/08/27 14:31:44;;;;;;;0.47;0.32;;;;;;;;;;4990560;28;20081;-79
2021/08/27 14:34:12;;;;;;;5.10;0.60;;;;;;;;;;4990865;28;20054;-79
2021/08/27 14:36:40;;;;;;;1.38;1.00;;;;;;;;;;4993863;28;20161;-79
2021/08/27 14:39:08;;;;;;;1.25;0.50;;;;;;;;;;4993569;28;20058;-79
2021/08/27 14:41:36;;;;;;;1.25;0.80;;;;;;;;;;5011605;28;20478;-79
2021/08/27 14:44:04;;;;;;;0.60;0.50;;;;;;;;;;4995504;28;20088;-79
2021/08/27 14:46:32;;;;;;;0.73;0.43;;;;;;;;;;5012268;28;20056;-79
2021/08/27 14:49:00;;;;;;;11.05;0.80;;;;;;;;;;4994263;28;20053;-79
2021/08/27 14:51:27;;;;;;;0.77;0.70;;;;;;;;;;5012384;28;20159;-79
2021/08/27 14:53:55;;;;;;;3.47;0.50;;;;;;;;;;4993913;28;20533;-79
2021/08/27 14:56:22;;;;;;;0.85;0.40;;;;;;;;;;4994812;28;20212;-79
2021/08/27 14:58:49;;;;;;;0.65;0.40;;;;;;;;;;4995875;28;20084;-79